createdAt,value
2023-05-01T00:02:11.849Z,8.50
2023-05-01T00:04:38.823Z,8.60
2023-05-01T00:07:05.814Z,8.60
2023-05-01T00:09:33.037Z,8.50
2023-05-01T00:11:59.967Z,8.50
2023-05-01T00:14:26.954Z,8.50
2023-05-01T00:16:54.004Z,8.50
2023-05-01T00:19:21.310Z,8.50
2023-05-01T00:21:51.499Z,8.50
2023-05-01T00:24:18.338Z,8.40
2023-05-01T00:26:45.436Z,8.30
2023-05-01T00:29:12.422Z,8.30
2023-05-01T00:31:41.500Z,8.20
2023-05-01T00:34:09.514Z,8.20
2023-05-01T00:36:36.486Z,8.30
2023-05-01T00:39:04.122Z,8.30
2023-05-01T00:41:31.003Z,8.30
2023-05-01T00:43:58.273Z,8.30
2023-05-01T00:46:26.014Z,8.40
2023-05-01T00:48:53.567Z,8.40
2023-05-01T00:51:22.328Z,8.40
2023-05-01T00:53:49.542Z,8.50
2023-05-01T00:56:17.242Z,8.40
2023-05-01T00:58:50.961Z,8.40
2023-05-01T01:01:17.884Z,8.40
2023-05-01T01:03:44.797Z,8.30
2023-05-01T01:06:42.860Z,8.40
2023-05-01T01:10:27.267Z,8.30
2023-05-01T01:13:20.283Z,8.30
2023-05-01T01:16:08.014Z,8.20
2023-05-01T01:18:52.892Z,8.10
2023-05-01T01:21:42.818Z,8.10
2023-05-01T01:25:06.446Z,8.10
2023-05-01T01:28:24.314Z,8.00
2023-05-01T01:31:17.654Z,7.90
2023-05-01T01:34:26.005Z,7.90
2023-05-01T01:37:35.885Z,7.90
2023-05-01T01:40:18.663Z,7.80
2023-05-01T01:42:55.240Z,7.70
2023-05-01T01:45:30.193Z,7.70
2023-05-01T01:47:59.162Z,7.70
2023-05-01T01:50:28.981Z,7.60
2023-05-01T01:53:04.254Z,7.60
2023-05-01T01:55:35.881Z,7.60
2023-05-01T01:58:06.824Z,7.60
2023-05-01T02:00:36.796Z,7.60
2023-05-01T02:03:05.805Z,7.60
2023-05-01T02:05:36.236Z,7.50
2023-05-01T02:08:06.168Z,7.50
2023-05-01T02:10:36.215Z,7.50
2023-05-01T02:13:05.138Z,7.40
2023-05-01T02:15:35.374Z,7.40
2023-05-01T02:18:05.367Z,7.40
2023-05-01T02:20:33.947Z,7.40
2023-05-01T02:23:04.023Z,7.30
2023-05-01T02:25:39.224Z,7.20
2023-05-01T02:28:16.064Z,7.20
2023-05-01T02:30:42.969Z,7.20
2023-05-01T02:33:10.748Z,7.20
2023-05-01T02:35:47.371Z,7.10
2023-05-01T02:38:16.751Z,7.20
2023-05-01T02:40:58.295Z,7.10
2023-05-01T02:43:32.178Z,7.10
2023-05-01T02:46:04.461Z,7.10
2023-05-01T02:48:34.009Z,7.10
2023-05-01T02:51:03.438Z,7.10
2023-05-01T02:53:32.619Z,7.10
2023-05-01T02:56:00.344Z,7.10
2023-05-01T02:58:32.263Z,7.00
2023-05-01T03:00:59.239Z,6.90
2023-05-01T03:03:27.816Z,6.90
2023-05-01T03:05:54.705Z,6.80
2023-05-01T03:08:22.171Z,6.80
2023-05-01T03:10:49.014Z,6.80
2023-05-01T03:13:16.654Z,6.80
2023-05-01T03:15:44.641Z,6.80
2023-05-01T03:18:11.610Z,6.80
2023-05-01T03:20:38.507Z,6.80
2023-05-01T03:23:06.525Z,6.70
2023-05-01T03:25:33.486Z,6.70
2023-05-01T03:28:00.384Z,6.70
2023-05-01T03:30:27.302Z,6.70
2023-05-01T03:32:55.105Z,6.70
2023-05-01T03:35:22.225Z,6.70
2023-05-01T03:37:49.207Z,6.70
2023-05-01T03:40:16.303Z,6.60
2023-05-01T03:42:43.209Z,6.60
2023-05-01T03:45:11.093Z,6.60
2023-05-01T03:47:38.129Z,6.60
2023-05-01T03:50:06.050Z,6.60
2023-05-01T03:52:33.017Z,6.60
2023-05-01T03:55:00.551Z,6.70
2023-05-01T03:57:27.562Z,6.60
2023-05-01T03:59:54.998Z,6.60
2023-05-01T04:02:22.414Z,6.60
2023-05-01T04:04:49.667Z,6.50
2023-05-01T04:07:16.666Z,6.50
2023-05-01T04:09:43.759Z,6.50
2023-05-01T04:12:10.701Z,6.50
2023-05-01T04:14:37.586Z,6.60
2023-05-01T04:17:04.530Z,6.50
2023-05-01T04:19:31.462Z,6.50
2023-05-01T04:21:58.288Z,6.50
2023-05-01T04:24:25.183Z,6.60
2023-05-01T04:26:52.482Z,6.70
2023-05-01T04:29:19.345Z,6.70
2023-05-01T04:31:46.295Z,6.90
2023-05-01T04:34:13.301Z,7.00
2023-05-01T04:36:40.338Z,7.10
2023-05-01T04:39:07.529Z,7.10
2023-05-01T04:41:34.445Z,7.20
2023-05-01T04:44:01.371Z,7.20
2023-05-01T04:46:28.354Z,7.20
2023-05-01T04:48:55.322Z,7.30
2023-05-01T04:51:22.407Z,7.30
2023-05-01T04:53:49.286Z,7.30
2023-05-01T04:56:16.151Z,7.30
2023-05-01T04:58:43.174Z,7.30
2023-05-01T05:01:10.173Z,7.30
2023-05-01T05:03:37.195Z,7.40
2023-05-01T05:06:04.454Z,7.40
2023-05-01T05:08:31.334Z,7.40
2023-05-01T05:11:01.963Z,7.40
2023-05-01T05:13:29.110Z,7.50
2023-05-01T05:15:56.062Z,7.40
2023-05-01T05:18:22.947Z,7.50
2023-05-01T05:20:49.836Z,7.50
2023-05-01T05:23:16.788Z,7.60
2023-05-01T05:25:43.656Z,7.80
2023-05-01T05:28:10.661Z,7.90
2023-05-01T05:30:37.601Z,8.10
2023-05-01T05:33:05.185Z,8.40
2023-05-01T05:35:32.069Z,8.60
2023-05-01T05:37:59.327Z,8.70
2023-05-01T05:40:26.413Z,8.80
2023-05-01T05:42:53.446Z,9.10
2023-05-01T05:45:20.375Z,9.30
2023-05-01T05:47:47.374Z,9.60
2023-05-01T05:50:14.323Z,9.80
2023-05-01T05:52:41.639Z,10.10
2023-05-01T05:55:09.355Z,10.30
2023-05-01T05:57:39.204Z,10.40
2023-05-01T06:00:09.269Z,10.60
2023-05-01T06:02:36.918Z,10.60
2023-05-01T06:05:04.579Z,10.70
2023-05-01T06:07:31.513Z,10.90
2023-05-01T06:10:05.101Z,10.80
2023-05-01T06:12:32.416Z,11.10
2023-05-01T06:15:00.500Z,11.40
2023-05-01T06:17:27.484Z,11.80
2023-05-01T06:19:54.906Z,12.30
2023-05-01T06:22:22.160Z,12.60
2023-05-01T06:24:49.063Z,12.70
2023-05-01T06:27:15.894Z,12.80
2023-05-01T06:29:42.752Z,12.90
2023-05-01T06:32:09.671Z,12.70
2023-05-01T06:34:36.526Z,12.50
2023-05-01T06:37:05.520Z,12.10
2023-05-01T06:39:32.363Z,12.00
2023-05-01T06:41:59.243Z,12.10
2023-05-01T06:44:26.138Z,12.50
2023-05-01T06:46:53.101Z,13.00
2023-05-01T06:49:19.971Z,13.40
2023-05-01T06:51:46.874Z,13.70
2023-05-01T06:54:13.741Z,13.70
2023-05-01T06:56:40.639Z,13.70
2023-05-01T06:59:07.582Z,13.60
2023-05-01T07:01:35.659Z,13.50
2023-05-01T07:04:04.000Z,13.50
2023-05-01T07:06:32.186Z,13.60
2023-05-01T07:08:59.140Z,13.60
2023-05-01T07:11:26.847Z,13.70
2023-05-01T07:13:54.965Z,14.10
2023-05-01T07:16:22.338Z,14.30
2023-05-01T07:18:49.397Z,14.20
2023-05-01T07:21:16.474Z,14.30
2023-05-01T07:23:43.458Z,14.20
2023-05-01T07:26:10.340Z,14.20
2023-05-01T07:28:37.251Z,14.10
2023-05-01T07:31:04.326Z,14.20
2023-05-01T07:33:31.424Z,14.40
2023-05-01T07:35:58.407Z,14.50
2023-05-01T07:38:26.165Z,14.30
2023-05-01T07:40:53.998Z,14.10
2023-05-01T07:43:20.935Z,14.20
2023-05-01T07:46:01.536Z,14.40
2023-05-01T07:48:29.299Z,14.60
2023-05-01T07:50:56.919Z,14.60
2023-05-01T07:53:23.806Z,14.50
2023-05-01T07:55:54.752Z,14.40
2023-05-01T07:58:21.719Z,14.30
2023-05-01T08:03:46.110Z,14.00
2023-05-01T08:06:14.523Z,13.80
2023-05-01T08:08:41.643Z,13.80
2023-05-01T08:11:09.787Z,13.90
2023-05-01T08:13:36.845Z,13.90
2023-05-01T08:16:09.566Z,13.90
2023-05-01T08:18:36.509Z,14.00
2023-05-01T08:21:06.945Z,14.20
2023-05-01T08:23:33.925Z,14.40
2023-05-01T08:26:00.948Z,14.30
2023-05-01T08:28:28.160Z,14.40
2023-05-01T08:30:55.178Z,14.70
2023-05-01T08:33:22.221Z,14.70
2023-05-01T08:35:49.457Z,14.70
2023-05-01T08:38:16.809Z,14.60
2023-05-01T08:40:54.328Z,14.60
2023-05-01T08:43:22.634Z,14.60
2023-05-01T08:45:54.604Z,14.60
2023-05-01T08:48:25.490Z,14.80
2023-05-01T08:51:00.770Z,14.90
2023-05-01T08:53:31.825Z,15.00
2023-05-01T08:56:01.231Z,14.90
2023-05-01T08:58:31.564Z,15.00
2023-05-01T09:01:01.047Z,15.20
2023-05-01T09:03:33.052Z,15.10
2023-05-01T09:06:03.317Z,15.10
2023-05-01T09:08:30.233Z,15.10
2023-05-01T09:11:00.768Z,15.10
2023-05-01T09:13:27.748Z,15.00
2023-05-01T09:15:54.759Z,14.90
2023-05-01T09:18:21.883Z,14.90
2023-05-01T09:20:49.026Z,14.70
2023-05-01T09:23:15.981Z,14.70
2023-05-01T09:25:43.689Z,14.60
2023-05-01T09:28:10.593Z,14.70
2023-05-01T09:30:39.556Z,14.70
2023-05-01T09:33:14.624Z,14.80
2023-05-01T09:35:58.452Z,14.90
2023-05-01T09:38:28.927Z,15.10
2023-05-01T09:41:06.219Z,15.10
2023-05-01T09:43:33.637Z,15.30
2023-05-01T09:46:10.656Z,15.50
2023-05-01T09:48:38.708Z,15.60
2023-05-01T09:51:31.607Z,15.60
2023-05-01T09:54:05.724Z,15.50
2023-05-01T09:56:45.767Z,15.50
2023-05-01T09:59:21.158Z,15.30
2023-05-01T10:01:50.659Z,15.30
2023-05-01T10:04:18.108Z,15.20
2023-05-01T10:06:45.235Z,15.20
2023-05-01T10:09:26.978Z,15.00
2023-05-01T10:11:57.574Z,15.10
2023-05-01T10:14:26.672Z,15.20
2023-05-01T10:16:54.228Z,15.10
2023-05-01T10:19:21.737Z,14.90
2023-05-01T10:21:49.268Z,14.80
2023-05-01T10:24:17.734Z,15.00
2023-05-01T10:26:48.816Z,15.00
2023-05-01T10:29:16.611Z,15.10
2023-05-01T10:31:43.544Z,15.10
2023-05-01T10:34:21.984Z,15.00
2023-05-01T10:37:02.742Z,14.90
2023-05-01T10:39:37.234Z,15.00
2023-05-01T10:42:13.625Z,15.10
2023-05-01T10:44:42.413Z,14.90
2023-05-01T10:47:24.682Z,14.70
2023-05-01T10:50:15.931Z,14.20
2023-05-01T10:53:14.378Z,13.80
2023-05-01T10:55:49.344Z,13.40
2023-05-01T10:58:38.466Z,13.00
2023-05-01T11:01:30.084Z,12.80
2023-05-01T11:04:00.918Z,12.60
2023-05-01T11:06:28.274Z,12.50
2023-05-01T11:08:56.129Z,12.30
2023-05-01T11:11:23.012Z,12.30
2023-05-01T11:14:04.036Z,12.20
2023-05-01T11:16:46.445Z,12.40
2023-05-01T11:19:22.492Z,12.30
2023-05-01T11:21:50.669Z,12.00
2023-05-01T11:24:18.736Z,11.60
2023-05-01T11:26:46.338Z,11.40
2023-05-01T11:29:13.271Z,11.30
2023-05-01T11:31:41.511Z,11.30
2023-05-01T11:34:09.531Z,11.20
2023-05-01T11:36:52.304Z,11.10
2023-05-01T11:39:20.309Z,11.00
2023-05-01T11:41:47.681Z,11.10
2023-05-01T11:44:18.329Z,11.30
2023-05-01T11:46:45.549Z,11.30
2023-05-01T11:49:12.715Z,11.40
2023-05-01T11:51:39.905Z,11.50
2023-05-01T11:54:15.115Z,11.40
2023-05-01T11:56:42.836Z,11.40
2023-05-01T11:59:17.306Z,11.30
2023-05-01T12:01:46.657Z,11.10
2023-05-01T12:04:30.702Z,11.10
2023-05-01T12:06:59.277Z,11.10
2023-05-01T12:09:28.153Z,11.10
2023-05-01T12:11:57.833Z,11.30
2023-05-01T12:14:25.284Z,11.30
2023-05-01T12:16:53.177Z,11.20
2023-05-01T12:19:22.469Z,11.30
2023-05-01T12:22:07.055Z,11.20
2023-05-01T12:24:34.131Z,11.20
2023-05-01T12:27:03.359Z,11.30
2023-05-01T12:29:46.961Z,11.30
2023-05-01T12:32:17.573Z,11.40
2023-05-01T12:34:45.193Z,11.50
2023-05-01T12:37:12.286Z,11.60
2023-05-01T12:39:42.490Z,11.50
2023-05-01T12:42:14.963Z,11.50
2023-05-01T12:44:43.592Z,11.60
2023-05-01T12:47:12.750Z,11.50
2023-05-01T12:49:40.524Z,11.70
2023-05-01T12:52:09.024Z,12.00
2023-05-01T12:54:40.556Z,12.20
2023-05-01T12:57:16.509Z,12.10
2023-05-01T12:59:46.625Z,12.10
2023-05-01T13:02:17.037Z,12.60
2023-05-01T13:04:46.414Z,12.80
2023-05-01T13:07:17.355Z,13.00
2023-05-01T13:09:59.813Z,13.20
2023-05-01T13:12:29.396Z,13.10
2023-05-01T13:14:57.544Z,13.40
2023-05-01T13:17:31.155Z,13.70
2023-05-01T13:20:04.462Z,14.30
2023-05-01T13:22:38.061Z,15.00
2023-05-01T13:25:17.928Z,15.70
2023-05-01T13:27:53.641Z,16.10
2023-05-01T13:30:32.697Z,16.50
2023-05-01T13:33:01.701Z,16.90
2023-05-01T13:35:28.813Z,17.50
2023-05-01T13:37:55.748Z,17.80
2023-05-01T13:40:27.577Z,17.90
2023-05-01T13:42:54.520Z,18.00
2023-05-01T13:45:21.635Z,18.20
2023-05-01T13:47:51.783Z,18.50
2023-05-01T13:50:19.090Z,18.60
2023-05-01T13:52:46.792Z,18.30
2023-05-01T13:55:14.705Z,18.00
2023-05-01T13:57:43.081Z,17.80
2023-05-01T14:00:19.674Z,17.60
2023-05-01T14:02:49.594Z,17.60
2023-05-01T14:05:28.882Z,17.40
2023-05-01T14:07:58.760Z,17.20
2023-05-01T14:10:28.717Z,17.10
2023-05-01T14:12:58.939Z,17.00
2023-05-01T14:15:26.908Z,16.90
2023-05-01T14:17:54.048Z,16.80
2023-05-01T14:20:21.088Z,17.00
2023-05-01T14:22:51.770Z,16.80
2023-05-01T14:25:28.531Z,16.50
2023-05-01T14:27:58.193Z,16.10
2023-05-01T14:30:39.506Z,16.20
2023-05-01T14:33:14.032Z,16.10
2023-05-01T14:35:49.877Z,16.10
2023-05-01T14:38:19.864Z,15.90
2023-05-01T14:40:47.967Z,15.60
2023-05-01T14:43:19.895Z,15.30
2023-05-01T14:45:49.435Z,15.00
2023-05-01T14:48:35.672Z,14.90
2023-05-01T14:51:06.307Z,14.80
2023-05-01T14:53:33.597Z,14.80
2023-05-01T14:56:00.615Z,14.60
2023-05-01T14:58:27.529Z,14.60
2023-05-01T15:00:55.200Z,14.70
2023-05-01T15:03:22.239Z,14.90
2023-05-01T15:05:49.289Z,14.90
2023-05-01T15:08:16.631Z,14.90
2023-05-01T15:10:44.861Z,14.80
2023-05-01T15:13:11.984Z,14.70
2023-05-01T15:15:38.810Z,14.40
2023-05-01T15:18:05.904Z,14.00
2023-05-01T15:20:32.903Z,13.80
2023-05-01T15:23:00.043Z,13.70
2023-05-01T15:25:27.025Z,13.60
2023-05-01T15:27:54.468Z,13.50
2023-05-01T15:30:21.584Z,13.30
2023-05-01T15:32:48.732Z,13.30
2023-05-01T15:35:17.186Z,13.30
2023-05-01T15:37:44.263Z,13.30
2023-05-01T15:40:11.645Z,13.30
2023-05-01T15:42:39.872Z,13.60
2023-05-01T15:45:07.950Z,13.80
2023-05-01T15:47:34.869Z,14.00
2023-05-01T15:50:02.055Z,14.10
2023-05-01T15:52:29.386Z,14.20
2023-05-01T15:54:56.406Z,14.30
2023-05-01T15:57:23.514Z,14.40
2023-05-01T15:59:53.697Z,14.70
2023-05-01T16:02:20.715Z,14.80
2023-05-01T16:04:47.910Z,14.70
2023-05-01T16:07:15.254Z,15.00
2023-05-01T16:09:42.239Z,14.70
2023-05-01T16:12:09.183Z,14.50
2023-05-01T16:14:39.542Z,14.50
2023-05-01T16:17:07.088Z,14.20
2023-05-01T16:19:36.565Z,13.90
2023-05-01T16:22:05.298Z,14.20
2023-05-01T16:24:38.680Z,14.50
2023-05-01T16:27:05.894Z,14.70
2023-05-01T16:29:34.787Z,14.40
2023-05-01T16:32:05.598Z,14.00
2023-05-01T16:34:32.934Z,13.70
2023-05-01T16:36:59.794Z,13.70
2023-05-01T16:39:26.744Z,13.60
2023-05-01T16:41:55.231Z,13.60
2023-05-01T16:44:23.075Z,13.40
2023-05-01T16:46:57.587Z,13.30
2023-05-01T16:49:27.434Z,12.90
2023-05-01T16:51:57.075Z,12.70
2023-05-01T16:54:35.978Z,12.60
2023-05-01T16:57:03.470Z,12.50
2023-05-01T16:59:31.443Z,12.30
2023-05-01T17:01:58.346Z,12.10
2023-05-01T17:04:25.871Z,11.90
2023-05-01T17:06:52.999Z,11.90
2023-05-01T17:09:20.543Z,11.60
2023-05-01T17:11:47.523Z,11.60
2023-05-01T17:14:14.515Z,11.50
2023-05-01T17:16:41.465Z,11.60
2023-05-01T17:19:09.715Z,11.70
2023-05-01T17:21:36.883Z,11.80
2023-05-01T17:24:04.466Z,11.90
2023-05-01T17:26:31.590Z,12.10
2023-05-01T17:28:59.331Z,12.30
2023-05-01T17:31:27.593Z,12.40
2023-05-01T17:33:54.648Z,12.50
2023-05-01T17:36:23.216Z,12.50
2023-05-01T17:38:50.362Z,12.40
2023-05-01T17:41:17.644Z,12.30
2023-05-01T17:43:45.614Z,12.10
2023-05-01T17:46:13.981Z,11.90
2023-05-01T17:48:44.697Z,11.70
2023-05-01T17:51:13.965Z,11.50
2023-05-01T17:53:42.149Z,11.30
2023-05-01T17:56:09.200Z,11.20
2023-05-01T17:58:36.325Z,11.00
2023-05-01T18:01:06.910Z,10.90
2023-05-01T18:03:34.052Z,10.80
2023-05-01T18:06:02.600Z,10.60
2023-05-01T18:08:29.832Z,10.50
2023-05-01T18:10:56.743Z,10.40
2023-05-01T18:13:28.468Z,10.30
2023-05-01T18:15:56.324Z,10.20
2023-05-01T18:18:23.773Z,10.20
2023-05-01T18:20:50.852Z,10.10
2023-05-01T18:23:18.663Z,10.00
2023-05-01T18:25:46.282Z,10.00
2023-05-01T18:28:16.188Z,9.90
2023-05-01T18:30:43.250Z,9.90
2023-05-01T18:33:11.006Z,9.80
2023-05-01T18:35:42.784Z,9.80
2023-05-01T18:38:10.812Z,9.70
2023-05-01T18:40:37.912Z,9.60
2023-05-01T18:43:05.302Z,9.50
2023-05-01T18:45:32.184Z,9.50
2023-05-01T18:48:00.985Z,9.40
2023-05-01T18:50:28.721Z,9.40
2023-05-01T18:52:55.814Z,9.30
2023-05-01T18:55:22.713Z,9.30
2023-05-01T18:57:49.665Z,9.30
2023-05-01T19:00:17.665Z,9.30
2023-05-01T19:02:51.103Z,9.20
2023-05-01T19:05:18.999Z,9.20
2023-05-01T19:07:46.406Z,9.20
2023-05-01T19:10:13.915Z,9.20
2023-05-01T19:12:41.926Z,9.20
2023-05-01T19:15:09.878Z,9.20
2023-05-01T19:17:37.251Z,9.10
2023-05-01T19:20:05.481Z,9.10
2023-05-01T19:22:32.439Z,9.10
2023-05-01T19:25:00.008Z,9.10
2023-05-01T19:27:27.071Z,9.00
2023-05-01T19:29:54.475Z,9.00
2023-05-01T19:32:22.973Z,8.90
2023-05-01T19:34:50.214Z,8.90
2023-05-01T19:37:17.263Z,8.90
2023-05-01T19:39:44.236Z,8.90
2023-05-01T19:42:11.807Z,8.80
2023-05-01T19:44:38.812Z,8.80
2023-05-01T19:47:06.260Z,8.70
2023-05-01T19:49:33.168Z,8.60
2023-05-01T19:52:00.374Z,8.50
2023-05-01T19:54:27.264Z,8.50
2023-05-01T19:56:55.930Z,8.50
2023-05-01T19:59:23.113Z,8.50
2023-05-01T20:01:50.551Z,8.50
2023-05-01T20:04:17.781Z,8.40
2023-05-01T20:06:44.997Z,8.30
2023-05-01T20:09:11.959Z,8.20
2023-05-01T20:11:38.855Z,8.20
2023-05-01T20:14:05.795Z,8.20
2023-05-01T20:16:32.993Z,8.20
2023-05-01T20:19:00.226Z,8.10
2023-05-01T20:21:27.288Z,8.10
2023-05-01T20:23:54.936Z,8.10
2023-05-01T20:26:21.862Z,8.00
2023-05-01T20:28:50.402Z,8.00
2023-05-01T20:31:17.507Z,8.00
2023-05-01T20:33:44.529Z,8.00
2023-05-01T20:36:11.900Z,8.00
2023-05-01T20:38:47.513Z,8.00
2023-05-01T20:41:15.836Z,7.90
2023-05-01T20:43:42.843Z,7.90
2023-05-01T20:46:09.742Z,7.80
2023-05-01T20:48:36.754Z,7.70
2023-05-01T20:51:03.976Z,7.80
2023-05-01T20:53:31.169Z,7.80
2023-05-01T20:55:58.313Z,7.80
2023-05-01T20:58:25.275Z,7.80
2023-05-01T21:00:55.473Z,7.80
2023-05-01T21:03:22.557Z,7.70
2023-05-01T21:05:49.758Z,7.80
2023-05-01T21:08:16.735Z,7.80
2023-05-01T21:10:43.680Z,7.80
2023-05-01T21:13:10.647Z,7.80
2023-05-01T21:15:41.430Z,7.80
2023-05-01T21:18:14.442Z,7.70
2023-05-01T21:20:42.494Z,7.70
2023-05-01T21:23:09.620Z,7.70
2023-05-01T21:25:36.679Z,7.70
2023-05-01T21:28:05.684Z,7.60
2023-05-01T21:30:36.369Z,7.60
2023-05-01T21:33:11.913Z,7.60
2023-05-01T21:35:44.346Z,7.50
2023-05-01T21:38:11.713Z,7.50
2023-05-01T21:40:42.467Z,7.60
2023-05-01T21:43:10.120Z,7.60
2023-05-01T21:45:43.073Z,7.60
2023-05-01T21:48:15.354Z,7.50
2023-05-01T21:50:42.419Z,7.50
2023-05-01T21:53:09.399Z,7.40
2023-05-01T21:55:36.487Z,7.30
2023-05-01T21:58:03.895Z,7.30
2023-05-01T22:00:31.712Z,7.20
2023-05-01T22:02:58.805Z,7.30
2023-05-01T22:05:30.864Z,7.20
2023-05-01T22:07:58.138Z,7.30
2023-05-01T22:10:25.139Z,7.20
2023-05-01T22:12:52.111Z,7.20
2023-05-01T22:15:19.040Z,7.20
2023-05-01T22:17:46.157Z,7.20
2023-05-01T22:20:13.283Z,7.20
2023-05-01T22:22:41.733Z,7.20
2023-05-01T22:25:11.444Z,7.10
2023-05-01T22:27:38.533Z,7.10
2023-05-01T22:30:07.132Z,7.10
2023-05-01T22:32:34.188Z,7.10
2023-05-01T22:35:01.703Z,7.00
2023-05-01T22:37:28.693Z,7.00
2023-05-01T22:39:55.801Z,6.80
2023-05-01T22:42:23.247Z,6.70
2023-05-01T22:44:50.167Z,6.70
2023-05-01T22:47:17.358Z,6.60
2023-05-01T22:49:44.328Z,6.60
2023-05-01T22:52:14.231Z,6.50
2023-05-01T22:54:41.078Z,6.40
2023-05-01T22:57:07.927Z,6.40
2023-05-01T22:59:34.782Z,6.30
2023-05-01T23:02:04.408Z,6.40
2023-05-01T23:04:32.352Z,6.30
2023-05-01T23:06:59.432Z,6.20
2023-05-01T23:09:26.567Z,6.10
2023-05-01T23:11:53.515Z,6.10
2023-05-01T23:14:20.610Z,6.00
2023-05-01T23:16:47.733Z,5.90
2023-05-01T23:19:24.879Z,5.80
2023-05-01T23:22:10.738Z,5.80
2023-05-01T23:24:48.266Z,5.80
2023-05-01T23:27:18.178Z,5.70
2023-05-01T23:30:06.118Z,5.80
2023-05-01T23:32:35.114Z,5.80
2023-05-01T23:35:16.073Z,5.80
2023-05-01T23:37:43.677Z,5.80
2023-05-01T23:40:11.366Z,5.70
2023-05-01T23:42:39.624Z,5.60
2023-05-01T23:45:08.334Z,5.50
2023-05-01T23:47:36.142Z,5.50
2023-05-01T23:50:03.809Z,5.40
2023-05-01T23:52:30.942Z,5.30
2023-05-01T23:54:58.085Z,5.30
2023-05-01T23:57:25.220Z,5.30
2023-05-01T23:59:52.485Z,5.30
